createdAt,value
2019-01-04T00:00:43.891Z,77.30
2019-01-04T00:03:13.512Z,78.07
2019-01-04T00:05:43.222Z,77.52
2019-01-04T00:08:12.801Z,77.31
2019-01-04T00:10:42.355Z,76.74
2019-01-04T00:13:11.924Z,76.60
2019-01-04T00:15:41.441Z,76.30
2019-01-04T00:18:10.812Z,76.13
2019-01-04T00:20:40.290Z,76.46
2019-01-04T00:23:09.814Z,76.08
2019-01-04T00:25:39.195Z,76.70
2019-01-04T00:28:08.593Z,75.92
2019-01-04T00:30:38.455Z,75.29
2019-01-04T00:33:08.041Z,75.91
2019-01-04T00:35:37.415Z,75.92
2019-01-04T00:38:07.084Z,76.03
2019-01-04T00:40:36.566Z,75.89
2019-01-04T00:43:06.049Z,76.42
2019-01-04T00:45:35.591Z,76.43
2019-01-04T00:48:05.068Z,76.39
2019-01-04T00:50:34.580Z,75.83
2019-01-04T00:53:04.112Z,75.87
2019-01-04T00:56:12.376Z,76.33
2019-01-04T00:59:20.847Z,75.97
2019-01-04T01:02:49.382Z,75.82
2019-01-04T01:06:01.553Z,75.75
2019-01-04T01:09:11.863Z,76.47
2019-01-04T01:12:19.323Z,75.57
2019-01-04T01:15:29.709Z,75.78
2019-01-04T01:18:28.870Z,75.72
2019-01-04T01:21:38.366Z,75.47
2019-01-04T01:24:50.003Z,75.76
2019-01-04T01:27:58.200Z,75.35
2019-01-04T01:31:05.726Z,75.51
2019-01-04T01:34:00.073Z,75.44
2019-01-04T01:37:36.272Z,75.30
2019-01-04T01:40:44.674Z,74.94
2019-01-04T01:43:33.519Z,75.40
2019-01-04T01:46:34.551Z,75.02
2019-01-04T01:49:32.258Z,74.82
2019-01-04T01:52:19.053Z,74.73
2019-01-04T01:54:48.614Z,74.73
2019-01-04T01:57:18.002Z,74.24
2019-01-04T01:59:47.542Z,74.24
2019-01-04T02:02:18.094Z,73.44
2019-01-04T02:04:47.587Z,73.92
2019-01-04T02:07:16.989Z,73.88
2019-01-04T02:09:46.734Z,73.87
2019-01-04T02:12:16.208Z,73.73
2019-01-04T02:14:45.687Z,73.39
2019-01-04T02:17:15.357Z,74.02
2019-01-04T02:19:44.739Z,74.73
2019-01-04T02:22:14.230Z,74.26
2019-01-04T02:24:43.751Z,74.17
2019-01-04T02:27:13.241Z,74.34
2019-01-04T02:29:42.704Z,73.63
2019-01-04T02:32:12.375Z,73.69
2019-01-04T02:34:41.774Z,74.31
2019-01-04T02:37:11.362Z,74.84
2019-01-04T02:39:41.132Z,74.62
2019-01-04T02:42:10.525Z,74.55
2019-01-04T02:44:39.916Z,74.43
2019-01-04T02:47:09.731Z,74.67
2019-01-04T02:49:40.260Z,74.87
2019-01-04T02:52:09.674Z,75.27
2019-01-04T02:54:39.097Z,75.69
2019-01-04T02:57:08.537Z,75.55
2019-01-04T02:59:38.377Z,76.18
2019-01-04T03:02:09.760Z,76.38
2019-01-04T03:04:39.202Z,76.51
2019-01-04T03:07:08.978Z,75.89
2019-01-04T03:09:38.375Z,76.42
2019-01-04T03:12:07.841Z,76.12
2019-01-04T03:14:37.553Z,76.05
2019-01-04T03:17:07.032Z,75.90
2019-01-04T03:19:36.456Z,74.69
2019-01-04T03:22:06.156Z,75.09
2019-01-04T03:24:35.653Z,75.64
2019-01-04T03:27:05.081Z,75.79
2019-01-04T03:29:34.822Z,75.19
2019-01-04T03:32:04.368Z,74.92
2019-01-04T03:34:35.109Z,74.89
2019-01-04T03:37:04.841Z,75.01
2019-01-04T03:39:34.239Z,74.63
2019-01-04T03:42:03.767Z,74.47
2019-01-04T03:44:33.313Z,74.32
2019-01-04T03:47:02.697Z,74.03
2019-01-04T03:49:32.191Z,73.68
2019-01-04T03:52:01.859Z,73.94
2019-01-04T03:54:31.280Z,73.56
2019-01-04T03:57:00.781Z,73.55
2019-01-04T03:59:30.614Z,73.97
2019-01-04T04:02:00.103Z,74.47
2019-01-04T04:04:29.784Z,73.89
2019-01-04T04:06:59.319Z,73.81
2019-01-04T04:09:29.293Z,74.11
2019-01-04T04:11:58.693Z,73.48
2019-01-04T04:14:28.465Z,73.37
2019-01-04T04:16:57.993Z,73.56
2019-01-04T04:19:27.474Z,73.70
2019-01-04T04:21:57.193Z,73.89
2019-01-04T04:24:26.720Z,73.19
2019-01-04T04:26:56.230Z,73.46
2019-01-04T04:29:25.997Z,73.05
2019-01-04T04:31:55.519Z,72.88
2019-01-04T04:34:25.023Z,72.72
2019-01-04T04:36:54.730Z,72.88
2019-01-04T04:39:24.122Z,73.74
2019-01-04T04:41:54.034Z,73.28
2019-01-04T04:44:23.561Z,72.93
2019-01-04T04:46:53.020Z,72.81
2019-01-04T04:49:22.410Z,73.31
2019-01-04T04:51:52.179Z,73.33
2019-01-04T04:54:21.671Z,73.12
2019-01-04T04:56:51.060Z,73.34
2019-01-04T04:59:21.300Z,72.84
2019-01-04T05:01:50.918Z,73.22
2019-01-04T05:04:20.668Z,72.78
2019-01-04T05:06:50.320Z,72.87
2019-01-04T05:09:19.835Z,72.92
2019-01-04T05:11:49.348Z,73.14
2019-01-04T05:14:19.078Z,73.15
2019-01-04T05:16:48.601Z,73.13
2019-01-04T05:19:18.096Z,73.12
2019-01-04T05:21:47.786Z,73.56
2019-01-04T05:24:17.245Z,73.08
2019-01-04T05:26:46.763Z,73.34
2019-01-04T05:29:16.528Z,73.16
2019-01-04T05:31:45.927Z,73.44
2019-01-04T05:34:15.301Z,73.49
2019-01-04T05:36:45.099Z,73.63
2019-01-04T05:39:14.587Z,73.81
2019-01-04T05:41:43.969Z,72.98
2019-01-04T05:44:13.733Z,73.57
2019-01-04T05:46:43.275Z,73.45
2019-01-04T05:49:12.771Z,73.76
2019-01-04T05:51:42.553Z,73.75
2019-01-04T05:54:11.948Z,73.90
2019-01-04T05:56:41.429Z,73.40
2019-01-04T05:59:11.379Z,73.22
2019-01-04T06:01:40.855Z,73.20
2019-01-04T06:04:10.267Z,73.76
2019-01-04T06:06:40.094Z,73.55
2019-01-04T06:09:10.099Z,73.57
2019-01-04T06:11:39.505Z,73.17
2019-01-04T06:14:09.546Z,73.31
2019-01-04T06:16:39.023Z,72.47
2019-01-04T06:19:08.540Z,72.32
2019-01-04T06:21:38.142Z,72.63
2019-01-04T06:24:08.101Z,72.88
2019-01-04T06:26:37.649Z,72.57
2019-01-04T06:29:07.316Z,72.29
2019-01-04T06:31:36.866Z,72.75
2019-01-04T06:34:06.397Z,72.97
2019-01-04T06:36:36.230Z,71.79
2019-01-04T06:39:07.913Z,71.56
2019-01-04T06:41:37.446Z,71.58
2019-01-04T06:44:07.307Z,72.10
2019-01-04T06:46:57.165Z,72.14
2019-01-04T06:49:26.897Z,72.01
2019-01-04T06:51:56.435Z,71.26
2019-01-04T06:55:01.725Z,71.28
2019-01-04T06:57:31.155Z,71.43
2019-01-04T07:00:00.583Z,71.47
2019-01-04T07:02:30.596Z,70.82
2019-01-04T07:05:00.353Z,71.41
2019-01-04T07:07:29.769Z,71.46
2019-01-04T07:09:59.700Z,71.36
2019-01-04T07:12:29.136Z,70.99
2019-01-04T07:14:58.569Z,70.61
2019-01-04T07:17:28.426Z,70.18
2019-01-04T07:19:57.959Z,70.66
2019-01-04T07:22:27.381Z,70.86
2019-01-04T07:24:57.024Z,70.69
2019-01-04T07:27:26.621Z,69.81
2019-01-04T07:29:56.126Z,69.19
2019-01-04T07:32:25.786Z,69.15
2019-01-04T07:34:55.185Z,68.73
2019-01-04T07:37:24.739Z,68.57
2019-01-04T07:39:54.387Z,67.59
2019-01-04T07:42:23.950Z,67.27
2019-01-04T07:44:53.419Z,67.29
2019-01-04T07:47:23.521Z,66.89
2019-01-04T07:49:54.540Z,67.32
2019-01-04T07:52:24.197Z,67.03
2019-01-04T07:55:00.338Z,66.80
2019-01-04T07:57:30.094Z,66.69
2019-01-04T08:00:01.434Z,66.55
2019-01-04T08:02:36.868Z,65.65
2019-01-04T08:05:08.475Z,66.16
2019-01-04T08:07:37.966Z,66.07
2019-01-04T08:10:17.820Z,65.48
2019-01-04T08:12:47.618Z,65.44
2019-01-04T08:15:17.304Z,65.31
2019-01-04T08:17:47.203Z,65.08
2019-01-04T08:20:16.786Z,65.41
2019-01-04T08:22:49.668Z,65.14
2019-01-04T08:25:19.580Z,65.17
2019-01-04T08:27:49.074Z,65.24
2019-01-04T08:30:20.118Z,65.44
2019-01-04T08:32:49.939Z,65.83
2019-01-04T08:35:19.384Z,65.92
2019-01-04T08:37:49.028Z,66.03
2019-01-04T08:40:19.316Z,65.91
2019-01-04T08:42:49.254Z,66.47
2019-01-04T08:45:19.237Z,66.62
2019-01-04T08:47:49.162Z,66.81
2019-01-04T08:50:18.700Z,67.08
2019-01-04T08:52:48.576Z,65.87
2019-01-04T08:55:27.185Z,66.50
2019-01-04T08:57:56.708Z,67.25
2019-01-04T09:00:26.250Z,67.97
2019-01-04T09:02:56.009Z,68.69
2019-01-04T09:05:25.531Z,68.58
2019-01-04T09:07:55.079Z,69.30
2019-01-04T09:10:24.537Z,69.14
2019-01-04T09:12:54.113Z,68.63
2019-01-04T09:15:23.720Z,68.26
2019-01-04T09:17:53.202Z,68.77
2019-01-04T09:20:22.642Z,69.03
2019-01-04T09:22:52.134Z,69.27
2019-01-04T09:25:21.697Z,69.55
2019-01-04T09:27:51.132Z,70.33
2019-01-04T09:30:20.558Z,70.45
2019-01-04T09:32:50.364Z,69.86
2019-01-04T09:35:19.877Z,69.43
2019-01-04T09:37:49.356Z,68.78
2019-01-04T09:40:20.148Z,67.92
2019-01-04T09:42:49.962Z,68.41
2019-01-04T09:45:19.448Z,68.55
2019-01-04T09:47:49.113Z,68.84
2019-01-04T09:50:18.619Z,69.86
2019-01-04T09:52:48.070Z,69.33
2019-01-04T09:55:17.857Z,69.42
2019-01-04T09:57:47.419Z,69.27
2019-01-04T10:00:16.958Z,69.22
2019-01-04T10:02:46.441Z,68.57
2019-01-04T10:05:15.921Z,68.13
2019-01-04T10:07:46.081Z,67.81
2019-01-04T10:10:15.636Z,68.18
2019-01-04T10:12:45.182Z,68.70
2019-01-04T10:15:16.616Z,68.50
2019-01-04T10:17:46.465Z,67.81
2019-01-04T10:20:15.985Z,67.81
2019-01-04T10:22:45.431Z,67.35
2019-01-04T10:25:15.080Z,67.46
2019-01-04T10:27:44.570Z,67.00
2019-01-04T10:30:29.514Z,65.44
2019-01-04T10:32:59.093Z,64.90
2019-01-04T10:35:28.630Z,64.38
2019-01-04T10:37:58.356Z,64.00
2019-01-04T10:40:27.848Z,64.20
2019-01-04T10:42:57.398Z,63.53
2019-01-04T10:45:27.200Z,62.60
2019-01-04T10:47:57.193Z,62.84
2019-01-04T10:50:28.906Z,62.90
2019-01-04T10:52:58.699Z,63.49
2019-01-04T10:55:28.278Z,63.34
2019-01-04T10:57:57.726Z,63.10
2019-01-04T11:00:27.509Z,63.95
2019-01-04T11:02:57.059Z,63.74
2019-01-04T11:05:26.588Z,64.84
2019-01-04T11:07:56.287Z,66.61
2019-01-04T11:10:25.730Z,68.62
2019-01-04T11:12:56.661Z,69.69
2019-01-04T11:15:26.631Z,69.87
2019-01-04T11:17:56.114Z,68.06
2019-01-04T11:20:51.142Z,67.46
2019-01-04T11:24:05.822Z,68.82
2019-01-04T11:27:08.274Z,68.98
2019-01-04T11:30:10.070Z,71.36
2019-01-04T11:33:12.276Z,69.83
2019-01-04T11:36:27.738Z,68.04
2019-01-04T11:39:42.169Z,67.61
2019-01-04T11:42:31.745Z,67.92
2019-01-04T11:45:24.273Z,69.62
2019-01-04T11:48:30.408Z,68.71
2019-01-04T11:51:56.234Z,67.93
2019-01-04T11:54:28.553Z,69.74
2019-01-04T11:56:58.085Z,69.28
2019-01-04T11:59:27.770Z,70.28
2019-01-04T12:01:57.302Z,72.86
2019-01-04T12:04:26.828Z,72.34
2019-01-04T12:06:56.752Z,72.05
2019-01-04T12:09:26.195Z,71.50
2019-01-04T12:11:55.621Z,70.73
2019-01-04T12:14:26.672Z,70.82
2019-01-04T12:16:56.244Z,69.15
2019-01-04T12:19:25.676Z,68.63
2019-01-04T12:21:55.180Z,69.62
2019-01-04T12:24:24.724Z,68.90
2019-01-04T12:26:54.270Z,69.48
2019-01-04T12:29:23.757Z,70.48
2019-01-04T12:31:53.133Z,71.86
2019-01-04T12:34:22.667Z,71.33
2019-01-04T12:36:52.355Z,70.80
2019-01-04T12:39:21.883Z,71.13
2019-01-04T12:41:51.460Z,69.42
2019-01-04T12:44:20.949Z,67.84
2019-01-04T12:46:50.385Z,68.86
2019-01-04T12:49:19.915Z,67.64
2019-01-04T12:51:49.478Z,65.99
2019-01-04T12:54:18.900Z,62.06
2019-01-04T12:56:48.377Z,61.22
2019-01-04T12:59:17.956Z,59.10
2019-01-04T13:01:47.507Z,59.84
2019-01-04T13:04:16.920Z,61.18
2019-01-04T13:06:46.410Z,61.22
2019-01-04T13:09:15.948Z,61.21
2019-01-04T13:11:45.498Z,61.69
2019-01-04T13:14:15.036Z,61.09
2019-01-04T13:16:45.739Z,61.41
2019-01-04T13:19:15.218Z,60.95
2019-01-04T13:21:44.988Z,60.32
2019-01-04T13:24:14.510Z,60.50
2019-01-04T13:26:44.037Z,60.62
2019-01-04T13:29:13.614Z,60.54
2019-01-04T13:31:43.062Z,60.81
2019-01-04T13:34:12.550Z,60.80
2019-01-04T13:36:42.329Z,61.51
2019-01-04T13:39:14.256Z,61.32
2019-01-04T13:41:43.645Z,60.73
2019-01-04T13:44:13.195Z,59.81
2019-01-04T13:46:42.716Z,59.52
2019-01-04T13:49:12.200Z,59.73
2019-01-04T13:51:41.879Z,59.87
2019-01-04T13:54:11.523Z,59.89
2019-01-04T13:56:41.324Z,59.99
2019-01-04T13:59:11.191Z,59.09
2019-01-04T14:01:40.722Z,59.12
2019-01-04T14:04:10.168Z,59.22
2019-01-04T14:06:40.199Z,60.14
2019-01-04T14:09:09.974Z,60.46
2019-01-04T14:11:39.516Z,61.54
2019-01-04T14:14:09.253Z,62.81
2019-01-04T14:16:38.684Z,63.19
2019-01-04T14:19:08.568Z,63.59
2019-01-04T14:21:38.567Z,64.41
2019-01-04T14:24:07.948Z,64.60
2019-01-04T14:26:37.387Z,65.42
2019-01-04T14:29:07.055Z,64.93
2019-01-04T14:31:36.559Z,65.04
2019-01-04T14:34:06.029Z,65.19
2019-01-04T14:36:35.948Z,66.06
2019-01-04T14:39:07.728Z,66.35
2019-01-04T14:41:37.216Z,67.39
2019-01-04T14:44:06.755Z,67.03
2019-01-04T14:46:36.546Z,67.01
2019-01-04T14:49:06.016Z,66.83
2019-01-04T14:51:37.291Z,66.50
2019-01-04T14:54:06.806Z,65.75
2019-01-04T14:56:36.563Z,66.39
2019-01-04T14:59:06.407Z,65.99
2019-01-04T15:01:35.894Z,66.03
2019-01-04T15:04:05.544Z,65.98
2019-01-04T15:06:35.098Z,65.81
2019-01-04T15:09:05.521Z,66.33
2019-01-04T15:11:36.370Z,66.56
2019-01-04T15:14:05.919Z,67.01
2019-01-04T15:16:35.302Z,66.98
2019-01-04T15:19:04.825Z,67.26
2019-01-04T15:21:34.666Z,67.12
2019-01-04T15:24:04.135Z,68.21
2019-01-04T15:26:33.632Z,67.73
2019-01-04T15:29:03.476Z,67.95
2019-01-04T15:31:33.160Z,68.50
2019-01-04T15:34:02.633Z,68.97
2019-01-04T15:36:32.411Z,69.47
2019-01-04T15:39:01.927Z,70.23
2019-01-04T15:41:31.586Z,71.04
2019-01-04T15:44:01.397Z,72.14
2019-01-04T15:46:30.843Z,73.09
2019-01-04T15:49:00.482Z,73.55
2019-01-04T15:51:30.347Z,74.17
2019-01-04T15:53:59.840Z,74.26
2019-01-04T15:56:29.376Z,74.25
2019-01-04T15:58:59.230Z,74.68
2019-01-04T16:01:28.742Z,75.45
2019-01-04T16:03:58.270Z,75.42
2019-01-04T16:06:27.999Z,75.62
2019-01-04T16:08:57.894Z,76.22
2019-01-04T16:11:27.412Z,75.98
2019-01-04T16:13:57.340Z,75.87
2019-01-04T16:16:27.436Z,76.11
2019-01-04T16:18:56.864Z,76.20
2019-01-04T16:21:26.571Z,76.28
2019-01-04T16:23:56.244Z,75.94
2019-01-04T16:26:25.744Z,76.20
2019-01-04T16:28:55.448Z,76.93
2019-01-04T16:31:24.982Z,76.33
2019-01-04T16:33:54.585Z,75.39
2019-01-04T16:36:26.442Z,75.65
2019-01-04T16:38:55.956Z,75.79
2019-01-04T16:41:25.380Z,75.62
2019-01-04T16:43:55.272Z,75.27
2019-01-04T16:46:25.128Z,75.86
2019-01-04T16:48:55.280Z,75.28
2019-01-04T16:51:24.952Z,75.34
2019-01-04T16:53:54.475Z,74.75
2019-01-04T16:56:24.007Z,74.90
2019-01-04T16:58:53.689Z,74.89
2019-01-04T17:01:23.119Z,74.75
2019-01-04T17:03:52.799Z,75.34
2019-01-04T17:06:22.632Z,75.19
2019-01-04T17:08:52.067Z,75.07
2019-01-04T17:11:22.430Z,75.35
2019-01-04T17:13:52.282Z,76.06
2019-01-04T17:16:21.768Z,75.20
2019-01-04T17:18:51.309Z,74.97
2019-01-04T17:21:20.902Z,74.17
2019-01-04T17:23:50.299Z,75.07
2019-01-04T17:26:19.758Z,79.74
2019-01-04T17:28:49.537Z,82.86
2019-01-04T17:31:19.095Z,84.99
2019-01-04T17:33:48.826Z,86.62
2019-01-04T17:36:18.464Z,87.47
2019-01-04T17:38:48.386Z,87.91
2019-01-04T17:41:17.976Z,88.54
2019-01-04T17:43:47.629Z,88.90
2019-01-04T17:46:17.087Z,89.65
2019-01-04T17:48:48.909Z,90.01
2019-01-04T17:51:18.878Z,90.91
2019-01-04T17:53:48.334Z,90.68
2019-01-04T17:56:17.912Z,90.33
2019-01-04T17:58:47.814Z,90.37
2019-01-04T18:01:17.259Z,90.19
2019-01-04T18:03:46.809Z,89.98
2019-01-04T18:06:16.574Z,90.46
2019-01-04T18:08:45.999Z,90.53
2019-01-04T18:11:15.651Z,89.86
2019-01-04T18:13:46.657Z,90.43
2019-01-04T18:16:16.349Z,90.24
2019-01-04T18:18:45.785Z,90.65
2019-01-04T18:21:15.454Z,90.52
2019-01-04T18:23:45.007Z,91.10
2019-01-04T18:26:14.590Z,91.15
2019-01-04T18:28:44.373Z,90.36
2019-01-04T18:31:13.786Z,90.73
2019-01-04T18:33:43.314Z,90.71
2019-01-04T18:36:13.126Z,90.42
2019-01-04T18:38:42.647Z,90.82
2019-01-04T18:41:12.168Z,90.41
2019-01-04T18:43:41.666Z,90.15
2019-01-04T18:46:11.120Z,90.81
2019-01-04T18:48:40.658Z,92.04
2019-01-04T18:51:10.291Z,91.22
2019-01-04T18:53:39.725Z,90.91
2019-01-04T18:56:09.195Z,91.20
2019-01-04T18:58:38.983Z,90.74
2019-01-04T19:01:13.691Z,90.82
2019-01-04T19:03:39.712Z,91.51
2019-01-04T19:06:09.330Z,92.06
2019-01-04T19:08:38.868Z,91.46
2019-01-04T19:11:08.913Z,91.48
2019-01-04T19:13:38.947Z,92.01
2019-01-04T19:16:08.886Z,92.10
2019-01-04T19:18:38.421Z,91.75
2019-01-04T19:21:08.250Z,92.01
2019-01-04T19:23:39.633Z,92.20
2019-01-04T19:26:08.981Z,91.59
2019-01-04T19:28:39.001Z,90.82
2019-01-04T19:31:08.670Z,90.50
2019-01-04T19:33:38.111Z,86.73
2019-01-04T19:36:07.633Z,87.70
2019-01-04T19:38:37.170Z,87.66
2019-01-04T19:41:06.717Z,88.13
2019-01-04T19:43:36.400Z,87.36
2019-01-04T19:46:05.860Z,86.72
2019-01-04T19:48:35.366Z,86.20
2019-01-04T19:51:05.099Z,85.58
2019-01-04T19:53:34.525Z,85.18
2019-01-04T19:56:04.071Z,84.97
2019-01-04T19:58:33.573Z,85.12
2019-01-04T20:01:03.025Z,84.60
2019-01-04T20:03:32.541Z,84.49
2019-01-04T20:07:17.372Z,84.37
2019-01-04T20:10:39.602Z,83.98
2019-01-04T20:14:31.648Z,81.77
2019-01-04T20:17:18.855Z,81.48
2019-01-04T20:20:08.803Z,80.92
2019-01-04T20:23:03.043Z,79.63
2019-01-04T20:25:50.133Z,79.34
2019-01-04T20:28:38.563Z,76.53
2019-01-04T20:31:44.896Z,75.66
2019-01-04T20:34:31.404Z,74.20
2019-01-04T20:37:22.325Z,73.43
2019-01-04T20:40:29.010Z,72.21
2019-01-04T20:43:26.456Z,71.94
2019-01-04T20:46:13.322Z,72.04
2019-01-04T20:49:13.289Z,70.72
2019-01-04T20:52:07.789Z,71.20
2019-01-04T20:54:59.051Z,71.70
2019-01-04T20:57:46.310Z,71.19
2019-01-04T21:00:37.533Z,71.81
2019-01-04T21:03:28.455Z,71.73
2019-01-04T21:06:19.722Z,72.15
2019-01-04T21:09:06.196Z,72.37
2019-01-04T21:11:57.930Z,72.43
2019-01-04T21:14:46.627Z,73.03
2019-01-04T21:17:34.978Z,72.92
2019-01-04T21:20:22.633Z,73.71
2019-01-04T21:23:09.965Z,74.35
2019-01-04T21:26:07.203Z,74.70
2019-01-04T21:29:01.475Z,75.22
2019-01-04T21:31:49.814Z,75.94
2019-01-04T21:34:40.106Z,75.73
2019-01-04T21:37:26.999Z,75.45
2019-01-04T21:40:16.359Z,76.24
2019-01-04T21:43:03.192Z,76.82
2019-01-04T21:45:50.139Z,77.53
2019-01-04T21:48:36.627Z,77.54
2019-01-04T21:51:36.998Z,77.85
2019-01-04T21:54:23.874Z,76.92
2019-01-04T21:57:12.381Z,76.54
2019-01-04T22:00:09.740Z,76.66
2019-01-04T22:02:56.676Z,76.80
2019-01-04T22:05:43.850Z,76.51
2019-01-04T22:08:32.448Z,75.82
2019-01-04T22:11:39.291Z,76.21
2019-01-04T22:14:33.971Z,76.90
2019-01-04T22:17:22.814Z,77.14
2019-01-04T22:20:09.951Z,77.49
2019-01-04T22:22:56.739Z,77.15
2019-01-04T22:26:00.276Z,77.73
2019-01-04T22:28:54.504Z,78.18
2019-01-04T22:31:43.028Z,78.20
2019-01-04T22:34:33.965Z,77.81
2019-01-04T22:37:22.651Z,78.73
2019-01-04T22:40:10.991Z,78.11
2019-01-04T22:42:58.133Z,78.33
2019-01-04T22:45:52.394Z,79.84
2019-01-04T22:48:39.838Z,79.53
2019-01-04T22:51:26.627Z,79.63
2019-01-04T22:54:23.992Z,79.44
2019-01-04T22:57:18.302Z,79.18
2019-01-04T23:00:21.472Z,79.40
2019-01-04T23:03:08.314Z,79.79
2019-01-04T23:06:01.061Z,79.33
2019-01-04T23:08:47.859Z,79.75
2019-01-04T23:11:51.864Z,80.19
2019-01-04T23:14:39.200Z,80.74
2019-01-04T23:17:33.577Z,80.98
2019-01-04T23:20:22.431Z,81.25
2019-01-04T23:23:09.432Z,81.69
2019-01-04T23:25:56.521Z,82.15
2019-01-04T23:29:02.886Z,82.61
2019-01-04T23:31:49.952Z,83.08
2019-01-04T23:34:36.890Z,83.54
2019-01-04T23:37:25.345Z,83.89
2019-01-04T23:40:18.700Z,83.88
2019-01-04T23:43:05.512Z,83.75
2019-01-04T23:45:56.847Z,82.83
2019-01-04T23:48:47.884Z,82.78
2019-01-04T23:51:36.584Z,82.39
2019-01-04T23:54:23.502Z,82.17
2019-01-04T23:57:14.648Z,82.82
